F/V Atalante — FVRQ — position and weather

sailwx.info

Track history (hours):
 
Tides and Currents Weather Stations Pressure Air Temp Water Temp Dewpoint Dewpoint Depression Visibility Wind Speed Wind Dir Waves Ship Positions

F/V Atalante

Last reported at 2017-Mar-29 18:33 UTC. Time now 2017-Mar-29 18:52 UTC.
Position N 46°50' W 003°48'.

Length 21 m; draft 3.9 m.

Type: . MMSI: 228854000.

Date/timePositionNaut miles runAvg speedWind from/ knotsBaromVisibWave heightAir tempDewpointWater temp
2017-Mar-29 18:33N 46°50' W 003°48'9 9.1
2017-Mar-29 17:33N 46°45' W 003°37'10 9.4
2017-Mar-29 16:32N 46°39' W 003°26'9 9.3
2017-Mar-29 15:32N 46°33' W 003°15'9 9.6
2017-Mar-29 14:33N 46°28' W 003°04'10 9.9
2017-Mar-29 13:33N 46°23' W 002°52'10 9.7
2017-Mar-29 12:33N 46°17' W 002°40'9 9.2
2017-Mar-29 11:33N 46°09' W 002°33'10 9.7
2017-Mar-29 10:31N 46°01' W 002°26'1010.0
2017-Mar-29 09:33N 45°54' W 002°15'1010.1
2017-Mar-29 08:33N 45°48' W 002°04'30 0.7
2017-Mar-27 15:26N 46°18' W 002°12'910.2
2017-Mar-27 14:33N 46°26' W 002°17'55 9.1
2017-Mar-27 08:33N 47°19' W 002°34'  
2017-Mar-24 22:29N 47°21' W 002°31'0 0.1
2017-Mar-24 21:33N 47°21' W 002°31'0 0.0
2017-Mar-24 20:33N 47°21' W 002°31'6 6.4
2017-Mar-24 19:33N 47°20' W 002°40'10 9.7
2017-Mar-24 18:33N 47°19' W 002°54'9 9.5
2017-Mar-24 17:33N 47°23' W 003°07'9 9.1
2017-Mar-24 16:33N 47°25' W 003°20'10 9.6
2017-Mar-24 15:33N 47°27' W 003°34'10 9.7
2017-Mar-24 14:33N 47°28' W 003°48'  
2017-Mar-20 17:29N 47°31' W 005°08'3 0.3
2017-Mar-20 03:33N 47°31' W 005°13'2 1.7
2017-Mar-20 02:32N 47°32' W 005°15'1 1.4
2017-Mar-20 01:32N 47°31' W 005°14'3 2.7
2017-Mar-20 00:33N 47°29' W 005°14'3 2.6
2017-Mar-19 23:33N 47°26' W 005°15'4 2.6
2017-Mar-19 22:07N 47°30' W 005°13'2 1.1
2017-Mar-19 20:27N 47°28' W 005°13'  
Track history (hours):
 
Tides and Currents Weather Stations Pressure Air Temp Water Temp Dewpoint Dewpoint Depression Visibility Wind Speed Wind Dir Waves Ship Positions

F/V Atalante

Last reported at 2017-Mar-29 18:33 UTC. Time now 2017-Mar-29 18:52 UTC.
Position N 46°50' W 003°48'.

Length 21 m; draft 3.9 m.

Type: . MMSI: 228854000.

Date/timePositionNaut miles runAvg speedWind from/ knotsBaromVisibWave heightAir tempDewpointWater temp
2017-Mar-29 18:33N 46°50' W 003°48'9 9.1
2017-Mar-29 17:33N 46°45' W 003°37'10 9.4
2017-Mar-29 16:32N 46°39' W 003°26'9 9.3
2017-Mar-29 15:32N 46°33' W 003°15'9 9.6
2017-Mar-29 14:33N 46°28' W 003°04'10 9.9
2017-Mar-29 13:33N 46°23' W 002°52'10 9.7
2017-Mar-29 12:33N 46°17' W 002°40'9 9.2
2017-Mar-29 11:33N 46°09' W 002°33'10 9.7
2017-Mar-29 10:31N 46°01' W 002°26'1010.0
2017-Mar-29 09:33N 45°54' W 002°15'1010.1
2017-Mar-29 08:33N 45°48' W 002°04'30 0.7
2017-Mar-27 15:26N 46°18' W 002°12'910.2
2017-Mar-27 14:33N 46°26' W 002°17'55 9.1
2017-Mar-27 08:33N 47°19' W 002°34'  
2017-Mar-24 22:29N 47°21' W 002°31'0 0.1
2017-Mar-24 21:33N 47°21' W 002°31'0 0.0
2017-Mar-24 20:33N 47°21' W 002°31'6 6.4
2017-Mar-24 19:33N 47°20' W 002°40'10 9.7
2017-Mar-24 18:33N 47°19' W 002°54'9 9.5
2017-Mar-24 17:33N 47°23' W 003°07'9 9.1
2017-Mar-24 16:33N 47°25' W 003°20'10 9.6
2017-Mar-24 15:33N 47°27' W 003°34'10 9.7
2017-Mar-24 14:33N 47°28' W 003°48'  
2017-Mar-20 17:29N 47°31' W 005°08'3 0.3
2017-Mar-20 03:33N 47°31' W 005°13'2 1.7
2017-Mar-20 02:32N 47°32' W 005°15'1 1.4
2017-Mar-20 01:32N 47°31' W 005°14'3 2.7
2017-Mar-20 00:33N 47°29' W 005°14'3 2.6
2017-Mar-19 23:33N 47°26' W 005°15'4 2.6
2017-Mar-19 22:07N 47°30' W 005°13'2 1.1
2017-Mar-19 20:27N 47°28' W 005°13'  

Dump ship's entire track history